createdAt,value
2018-05-08T00:02:22.334Z,95.26
2018-05-08T00:04:48.670Z,95.82
2018-05-08T00:07:21.901Z,95.24
2018-05-08T00:09:48.320Z,95.60
2018-05-08T00:12:14.635Z,96.81
2018-05-08T00:14:43.076Z,97.01
2018-05-08T00:17:09.393Z,96.55
2018-05-08T00:19:35.761Z,96.56
2018-05-08T00:22:02.171Z,97.35
2018-05-08T00:24:29.621Z,96.54
2018-05-08T00:26:56.010Z,96.91
2018-05-08T00:29:22.429Z,96.40
2018-05-08T00:31:48.757Z,96.26
2018-05-08T00:34:15.179Z,96.72
2018-05-08T00:36:41.572Z,96.52
2018-05-08T00:39:07.862Z,97.00
2018-05-08T00:41:34.225Z,96.84
2018-05-08T00:44:04.057Z,96.73
2018-05-08T00:46:30.405Z,97.19
2018-05-08T00:48:56.711Z,96.84
2018-05-08T00:51:23.107Z,96.71
2018-05-08T00:53:49.487Z,96.83
2018-05-08T00:56:15.869Z,97.10
2018-05-08T00:58:42.228Z,97.01
2018-05-08T01:01:08.676Z,97.00
2018-05-08T01:03:38.644Z,96.87
2018-05-08T01:06:04.991Z,96.56
2018-05-08T01:08:31.392Z,97.10
2018-05-08T01:10:57.699Z,96.87
2018-05-08T01:13:25.157Z,96.55
2018-05-08T01:15:51.594Z,96.62
2018-05-08T01:18:17.928Z,97.30
2018-05-08T01:20:44.299Z,96.74
2018-05-08T01:23:10.820Z,96.96
2018-05-08T01:25:37.142Z,96.42
2018-05-08T01:28:03.495Z,97.05
2018-05-08T01:30:29.791Z,97.60
2018-05-08T01:33:00.058Z,97.53
2018-05-08T01:35:26.441Z,97.35
2018-05-08T01:37:52.755Z,97.39
2018-05-08T01:40:19.108Z,96.91
2018-05-08T01:42:49.504Z,97.24
2018-05-08T01:45:15.818Z,97.57
2018-05-08T01:47:42.206Z,97.66
2018-05-08T01:50:08.557Z,97.10
2018-05-08T01:52:34.848Z,97.51
2018-05-08T01:55:02.282Z,96.71
2018-05-08T01:57:28.659Z,96.92
2018-05-08T01:59:54.987Z,97.21
2018-05-08T02:02:21.310Z,97.25
2018-05-08T02:04:47.794Z,97.50
2018-05-08T02:07:14.225Z,96.79
2018-05-08T02:09:40.552Z,95.57
2018-05-08T02:12:07.004Z,96.48
2018-05-08T02:14:34.406Z,97.62
2018-05-08T02:17:00.741Z,97.81
2018-05-08T02:19:27.095Z,97.83
2018-05-08T02:21:53.455Z,98.31
2018-05-08T02:24:19.869Z,97.72
2018-05-08T02:26:46.197Z,97.83
2018-05-08T02:29:12.589Z,98.08
2018-05-08T02:31:39.036Z,98.13
2018-05-08T02:34:05.450Z,97.83
2018-05-08T02:36:31.748Z,97.27
2018-05-08T02:38:58.054Z,97.84
2018-05-08T02:41:24.491Z,97.83
2018-05-08T02:43:57.821Z,98.19
2018-05-08T02:46:24.131Z,97.92
2018-05-08T02:48:50.455Z,97.78
2018-05-08T02:51:16.816Z,98.14
2018-05-08T02:53:50.290Z,97.81
2018-05-08T02:56:16.686Z,98.31
2018-05-08T02:58:43.077Z,98.36
2018-05-08T03:01:09.514Z,97.67
2018-05-08T03:03:37.882Z,98.20
2018-05-08T03:06:04.345Z,97.73
2018-05-08T03:08:30.693Z,97.99
2018-05-08T03:10:57.087Z,97.96
2018-05-08T03:13:23.517Z,97.82
2018-05-08T03:15:49.909Z,97.60
2018-05-08T03:18:16.247Z,97.54
2018-05-08T03:20:42.706Z,98.01
2018-05-08T03:23:11.356Z,97.83
2018-05-08T03:25:37.881Z,98.22
2018-05-08T03:28:04.331Z,97.81
2018-05-08T03:30:30.761Z,97.84
2018-05-08T03:32:57.315Z,97.34
2018-05-08T03:35:23.670Z,96.39
2018-05-08T03:37:50.073Z,95.66
2018-05-08T03:40:16.694Z,95.09
2018-05-08T03:42:43.060Z,94.94
2018-05-08T03:45:09.489Z,93.80
2018-05-08T03:47:35.824Z,92.00
2018-05-08T03:50:02.166Z,89.17
2018-05-08T03:52:28.546Z,89.02
2018-05-08T03:54:58.228Z,91.22
2018-05-08T03:57:25.019Z,91.39
2018-05-08T03:59:51.421Z,92.78
2018-05-08T04:02:30.060Z,93.12
2018-05-08T04:05:09.669Z,93.42
2018-05-08T04:07:48.371Z,92.85
2018-05-08T04:10:14.781Z,92.19
2018-05-08T04:12:41.188Z,90.45
2018-05-08T04:15:09.808Z,88.35
2018-05-08T04:17:36.229Z,88.80
2018-05-08T04:20:02.734Z,90.76
2018-05-08T04:22:29.237Z,92.47
2018-05-08T04:24:59.269Z,92.83
2018-05-08T04:27:25.723Z,91.92
2018-05-08T04:29:52.095Z,91.84
2018-05-08T04:32:18.493Z,91.19
2018-05-08T04:34:45.904Z,91.29
2018-05-08T04:37:12.229Z,90.79
2018-05-08T04:39:38.721Z,89.50
2018-05-08T04:42:05.160Z,87.15
2018-05-08T04:44:32.596Z,87.90
2018-05-08T04:46:58.980Z,87.02
2018-05-08T04:49:25.380Z,86.31
2018-05-08T04:51:51.791Z,85.99
2018-05-08T04:54:22.379Z,86.98
2018-05-08T04:56:48.740Z,86.49
2018-05-08T04:59:15.069Z,84.30
2018-05-08T05:01:41.483Z,84.89
2018-05-08T05:04:08.937Z,84.71
2018-05-08T05:06:35.382Z,85.81
2018-05-08T05:09:01.819Z,85.81
2018-05-08T05:11:28.232Z,85.07
2018-05-08T05:13:54.885Z,85.69
2018-05-08T05:16:21.417Z,83.01
2018-05-08T05:18:47.895Z,80.94
2018-05-08T05:21:14.362Z,78.91
2018-05-08T05:23:40.789Z,79.47
2018-05-08T05:26:07.206Z,76.98
2018-05-08T05:28:33.582Z,77.60
2018-05-08T05:31:00.084Z,80.66
2018-05-08T05:33:26.540Z,80.21
2018-05-08T05:35:52.984Z,83.40
2018-05-08T05:38:19.481Z,84.11
2018-05-08T05:40:45.894Z,85.32
2018-05-08T05:43:13.412Z,85.96
2018-05-08T05:45:39.843Z,84.84
2018-05-08T05:48:06.242Z,84.97
2018-05-08T05:50:32.656Z,85.87
2018-05-08T05:52:59.080Z,84.31
2018-05-08T05:55:25.529Z,82.56
2018-05-08T05:57:51.859Z,80.02
2018-05-08T06:00:18.295Z,75.61
2018-05-08T06:02:44.686Z,76.25
2018-05-08T06:05:12.165Z,74.42
2018-05-08T06:07:38.607Z,71.32
2018-05-08T06:10:04.960Z,68.91
2018-05-08T06:12:31.388Z,70.82
2018-05-08T06:15:01.529Z,71.67
2018-05-08T06:17:27.913Z,70.34
2018-05-08T06:19:54.701Z,72.25
2018-05-08T06:22:21.305Z,69.88
2018-05-08T06:24:48.967Z,70.22
2018-05-08T06:27:15.459Z,65.18
2018-05-08T06:29:42.035Z,71.45
2018-05-08T06:32:08.510Z,68.33
2018-05-08T06:34:34.949Z,65.01
2018-05-08T06:37:01.490Z,61.04
2018-05-08T06:39:27.944Z,63.48
2018-05-08T06:41:54.382Z,64.83
2018-05-08T06:44:24.263Z,63.39
2018-05-08T06:46:50.719Z,64.92
2018-05-08T06:49:17.210Z,66.84
2018-05-08T06:51:43.786Z,65.42
2018-05-08T06:54:13.595Z,63.14
2018-05-08T06:56:40.046Z,61.53
2018-05-08T06:59:06.449Z,65.64
2018-05-08T07:01:32.834Z,61.94
2018-05-08T07:04:00.198Z,69.22
2018-05-08T07:06:26.644Z,68.84
2018-05-08T07:08:53.067Z,68.24
2018-05-08T07:11:19.492Z,68.43
2018-05-08T07:13:46.991Z,69.52
2018-05-08T07:16:13.495Z,65.96
2018-05-08T07:18:39.810Z,66.23
2018-05-08T07:21:06.295Z,63.81
2018-05-08T07:23:36.011Z,63.98
2018-05-08T07:26:02.407Z,55.43
2018-05-08T07:28:28.855Z,64.47
2018-05-08T07:30:55.284Z,69.68
2018-05-08T07:33:25.439Z,64.54
2018-05-08T07:35:51.954Z,65.12
2018-05-08T07:38:18.331Z,59.51
2018-05-08T07:40:44.738Z,64.32
2018-05-08T07:43:11.141Z,61.57
2018-05-08T07:45:37.865Z,61.67
2018-05-08T07:48:04.236Z,60.62
2018-05-08T07:50:30.646Z,57.06
2018-05-08T07:52:57.081Z,60.39
2018-05-08T07:55:24.528Z,56.91
2018-05-08T07:57:50.940Z,59.75
2018-05-08T08:00:17.343Z,59.32
2018-05-08T08:02:43.748Z,65.91
2018-05-08T08:05:20.858Z,61.34
2018-05-08T08:07:47.227Z,59.26
2018-05-08T08:10:13.580Z,60.74
2018-05-08T08:12:39.958Z,55.08
2018-05-08T08:15:06.436Z,58.91
2018-05-08T08:17:32.841Z,55.12
2018-05-08T08:19:59.403Z,54.27
2018-05-08T08:22:25.800Z,57.60
2018-05-08T08:24:52.317Z,55.09
2018-05-08T08:27:18.784Z,55.04
2018-05-08T08:29:45.294Z,61.57
2018-05-08T08:32:11.712Z,52.35
2018-05-08T08:34:43.427Z,52.62
2018-05-08T08:37:09.809Z,50.31
2018-05-08T08:39:36.240Z,51.05
2018-05-08T08:42:02.688Z,55.86
2018-05-08T08:44:29.135Z,56.05
2018-05-08T08:46:55.533Z,54.05
2018-05-08T08:49:22.048Z,52.42
2018-05-08T08:51:48.585Z,50.65
2018-05-08T08:54:23.179Z,52.63
2018-05-08T08:56:49.567Z,55.84
2018-05-08T08:59:16.026Z,54.43
2018-05-08T09:01:42.443Z,50.96
2018-05-08T09:04:08.905Z,50.01
2018-05-08T09:06:35.383Z,48.89
2018-05-08T09:09:01.809Z,52.34
2018-05-08T09:11:28.192Z,45.79
2018-05-08T09:13:54.754Z,49.53
2018-05-08T09:16:21.184Z,49.33
2018-05-08T09:18:47.577Z,52.47
2018-05-08T09:21:14.000Z,50.47
2018-05-08T09:23:43.638Z,48.98
2018-05-08T09:26:09.977Z,50.84
2018-05-08T09:28:36.373Z,51.02
2018-05-08T09:31:02.872Z,44.67
2018-05-08T09:33:36.913Z,48.11
2018-05-08T09:36:03.349Z,47.71
2018-05-08T09:38:29.764Z,46.82
2018-05-08T09:40:56.205Z,49.70
2018-05-08T09:43:25.256Z,48.34
2018-05-08T09:45:52.631Z,48.29
2018-05-08T09:48:19.467Z,43.43
2018-05-08T09:50:45.984Z,46.28
2018-05-08T09:53:12.367Z,46.40
2018-05-08T09:55:38.766Z,46.63
2018-05-08T09:58:05.268Z,49.98
2018-05-08T10:00:31.723Z,54.25
2018-05-08T10:02:58.076Z,46.70
2018-05-08T10:05:33.017Z,44.60
2018-05-08T10:07:59.431Z,48.75
2018-05-08T10:10:25.880Z,43.71
2018-05-08T10:12:52.305Z,47.91
2018-05-08T10:15:19.806Z,45.92
2018-05-08T10:17:46.267Z,43.80
2018-05-08T10:20:12.844Z,46.44
2018-05-08T10:22:39.259Z,45.77
2018-05-08T10:25:05.678Z,40.32
2018-05-08T10:27:32.159Z,42.76
2018-05-08T10:29:58.541Z,41.97
2018-05-08T10:32:24.963Z,42.37
2018-05-08T10:34:57.393Z,44.25
2018-05-08T10:37:23.758Z,40.65
2018-05-08T10:39:50.178Z,39.24
2018-05-08T10:42:16.601Z,42.07
2018-05-08T10:44:49.935Z,38.78
2018-05-08T10:47:16.342Z,39.16
2018-05-08T10:49:43.140Z,37.61
2018-05-08T10:52:09.595Z,38.46
2018-05-08T10:54:42.652Z,37.67
2018-05-08T10:57:09.187Z,39.18
2018-05-08T10:59:35.588Z,36.40
2018-05-08T11:02:01.985Z,39.21
2018-05-08T11:04:29.477Z,39.80
2018-05-08T11:06:55.867Z,40.41
2018-05-08T11:09:22.250Z,41.40
2018-05-08T11:11:48.754Z,37.01
2018-05-08T11:14:18.967Z,39.74
2018-05-08T11:16:45.368Z,41.18
2018-05-08T11:19:11.785Z,37.65
2018-05-08T11:21:38.142Z,35.23
2018-05-08T11:24:04.537Z,37.36
2018-05-08T11:26:31.089Z,43.43
2018-05-08T11:28:57.358Z,37.09
2018-05-08T11:31:23.709Z,41.25
2018-05-08T11:33:51.331Z,40.40
2018-05-08T11:36:17.832Z,42.05
2018-05-08T11:38:44.265Z,36.10
2018-05-08T11:41:10.756Z,38.94
2018-05-08T11:43:48.092Z,35.38
2018-05-08T11:46:14.612Z,39.60
2018-05-08T11:48:41.001Z,37.65
2018-05-08T11:51:07.402Z,40.71
2018-05-08T11:53:33.859Z,39.75
2018-05-08T11:56:00.286Z,34.75
2018-05-08T11:58:26.652Z,35.60
2018-05-08T12:00:53.147Z,36.31
2018-05-08T12:03:19.463Z,38.08
2018-05-08T12:05:45.818Z,40.91
2018-05-08T12:08:12.178Z,40.56
2018-05-08T12:10:38.641Z,35.88
2018-05-08T12:13:05.024Z,41.47
2018-05-08T12:15:32.573Z,36.13
2018-05-08T12:17:58.977Z,37.13
2018-05-08T12:20:25.337Z,33.31
2018-05-08T12:22:51.863Z,36.35
2018-05-08T12:25:25.926Z,33.61
2018-05-08T12:27:52.405Z,37.35
2018-05-08T12:30:18.813Z,34.82
2018-05-08T12:32:45.332Z,37.49
2018-05-08T12:35:13.779Z,41.56
2018-05-08T12:37:40.308Z,37.91
2018-05-08T12:40:06.862Z,37.61
2018-05-08T12:42:33.360Z,40.15
2018-05-08T12:45:01.892Z,37.08
2018-05-08T12:47:28.341Z,37.42
2018-05-08T12:49:54.888Z,37.18
2018-05-08T12:52:21.329Z,38.31
2018-05-08T12:54:49.806Z,37.14
2018-05-08T12:57:16.325Z,35.35
2018-05-08T12:59:42.822Z,36.79
2018-05-08T13:02:09.306Z,36.40
2018-05-08T13:04:35.853Z,37.50
2018-05-08T13:07:02.333Z,37.51
2018-05-08T13:09:28.801Z,39.44
2018-05-08T13:11:55.323Z,40.38
2018-05-08T13:14:22.802Z,38.55
2018-05-08T13:16:49.316Z,35.45
2018-05-08T13:19:15.873Z,37.45
2018-05-08T13:21:42.400Z,39.91
2018-05-08T13:24:08.925Z,40.36
2018-05-08T13:26:35.452Z,37.52
2018-05-08T13:29:01.881Z,38.58
2018-05-08T13:31:28.466Z,44.08
2018-05-08T13:33:55.048Z,39.79
2018-05-08T13:36:21.521Z,42.67
2018-05-08T13:38:47.894Z,41.24
2018-05-08T13:41:14.342Z,43.22
2018-05-08T13:43:40.788Z,39.90
2018-05-08T13:46:07.185Z,41.10
2018-05-08T13:48:33.665Z,44.70
2018-05-08T13:51:00.031Z,44.80
2018-05-08T13:53:27.491Z,40.72
2018-05-08T13:55:54.444Z,39.88
2018-05-08T13:58:21.066Z,44.90
2018-05-08T14:00:47.489Z,37.98
2018-05-08T14:03:13.903Z,39.58
2018-05-08T14:05:40.368Z,42.35
2018-05-08T14:08:06.757Z,41.97
2018-05-08T14:10:33.126Z,42.66
2018-05-08T14:12:59.521Z,43.50
2018-05-08T14:15:27.924Z,43.10
2018-05-08T14:17:54.317Z,41.16
2018-05-08T14:20:20.853Z,40.42
2018-05-08T14:22:47.286Z,38.32
2018-05-08T14:25:13.783Z,42.54
2018-05-08T14:27:40.202Z,40.08
2018-05-08T14:30:06.561Z,39.85
2018-05-08T14:32:32.936Z,41.99
2018-05-08T14:34:59.316Z,41.58
2018-05-08T14:37:25.840Z,42.05
2018-05-08T14:39:52.331Z,41.85
2018-05-08T14:42:18.722Z,40.46
2018-05-08T14:44:45.215Z,42.76
2018-05-08T14:47:11.632Z,38.04
2018-05-08T14:49:38.116Z,39.00
2018-05-08T14:52:04.407Z,41.85
2018-05-08T14:54:30.829Z,41.95
2018-05-08T14:56:57.232Z,38.67
2018-05-08T14:59:23.681Z,38.96
2018-05-08T15:01:50.043Z,41.25
2018-05-08T15:04:16.596Z,38.79
2018-05-08T15:06:42.972Z,38.76
2018-05-08T15:09:09.373Z,37.20
2018-05-08T15:11:35.732Z,39.11
2018-05-08T15:14:04.131Z,41.25
2018-05-08T15:16:30.542Z,36.84
2018-05-08T15:18:56.966Z,40.63
2018-05-08T15:21:23.435Z,37.72
2018-05-08T15:23:50.014Z,39.00
2018-05-08T15:26:16.519Z,42.13
2018-05-08T15:28:43.229Z,38.49
2018-05-08T15:31:09.668Z,42.31
2018-05-08T15:33:36.086Z,43.54
2018-05-08T15:36:02.756Z,43.04
2018-05-08T15:38:29.238Z,44.46
2018-05-08T15:40:55.752Z,45.32
2018-05-08T15:43:22.139Z,45.89
2018-05-08T15:45:48.657Z,48.10
2018-05-08T15:48:15.259Z,48.24
2018-05-08T15:50:41.829Z,49.22
2018-05-08T15:53:08.430Z,51.27
2018-05-08T15:55:34.936Z,48.40
2018-05-08T15:58:01.454Z,48.70
2018-05-08T16:00:28.093Z,44.80
2018-05-08T16:02:54.622Z,50.51
2018-05-08T16:05:22.394Z,49.27
2018-05-08T16:07:49.059Z,49.20
2018-05-08T16:10:15.464Z,51.28
2018-05-08T16:12:41.874Z,51.47
2018-05-08T16:15:08.488Z,52.20
2018-05-08T16:17:34.842Z,48.56
2018-05-08T16:20:01.244Z,46.09
2018-05-08T16:22:27.652Z,51.25
2018-05-08T16:24:54.356Z,47.88
2018-05-08T16:27:20.905Z,51.69
2018-05-08T16:29:47.434Z,56.72
2018-05-08T16:32:13.898Z,57.78
2018-05-08T16:34:40.438Z,59.40
2018-05-08T16:37:06.884Z,63.20
2018-05-08T16:39:33.325Z,64.90
2018-05-08T16:41:59.773Z,61.50
2018-05-08T16:44:26.418Z,59.86
2018-05-08T16:46:52.996Z,60.48
2018-05-08T16:49:19.464Z,60.23
2018-05-08T16:51:46.085Z,61.47
2018-05-08T16:54:16.164Z,62.42
2018-05-08T16:56:42.603Z,62.86
2018-05-08T16:59:09.183Z,62.21
2018-05-08T17:01:35.664Z,63.04
2018-05-08T17:04:02.159Z,64.51
2018-05-08T17:06:28.625Z,65.09
2018-05-08T17:08:55.052Z,66.17
2018-05-08T17:11:21.457Z,67.41
2018-05-08T17:13:49.011Z,66.47
2018-05-08T17:16:15.655Z,68.56
2018-05-08T17:18:42.189Z,70.20
2018-05-08T17:21:08.683Z,67.10
2018-05-08T17:23:36.044Z,65.77
2018-05-08T17:26:02.557Z,68.42
2018-05-08T17:28:29.060Z,67.78
2018-05-08T17:30:55.458Z,65.83
2018-05-08T17:33:21.945Z,67.74
2018-05-08T17:35:48.543Z,64.68
2018-05-08T17:38:15.026Z,67.67
2018-05-08T17:40:41.387Z,67.63
2018-05-08T17:43:08.681Z,66.89
2018-05-08T17:45:39.145Z,69.12
2018-05-08T17:48:05.634Z,70.45
2018-05-08T17:50:32.055Z,70.43
2018-05-08T17:52:58.437Z,69.77
2018-05-08T17:55:25.049Z,71.16
2018-05-08T17:57:52.287Z,72.10
2018-05-08T18:00:19.016Z,70.52
2018-05-08T18:02:45.788Z,70.91
2018-05-08T18:05:12.369Z,73.20
2018-05-08T18:07:38.713Z,71.49
2018-05-08T18:10:05.170Z,69.62
2018-05-08T18:12:31.913Z,69.08
2018-05-08T18:14:58.508Z,70.90
2018-05-08T18:17:24.957Z,70.25
2018-05-08T18:19:51.615Z,69.94
2018-05-08T18:22:26.897Z,70.23
2018-05-08T18:24:53.962Z,69.10
2018-05-08T18:27:20.700Z,69.51
2018-05-08T18:29:47.373Z,71.70
2018-05-08T18:32:13.858Z,69.95
2018-05-08T18:34:42.365Z,71.04
2018-05-08T18:37:08.813Z,70.17
2018-05-08T18:39:35.240Z,72.47
2018-05-08T18:42:01.620Z,70.12
2018-05-08T18:44:28.057Z,69.68
2018-05-08T18:46:54.598Z,70.49
2018-05-08T18:49:21.303Z,70.75
2018-05-08T18:51:48.221Z,71.43
2018-05-08T18:54:16.273Z,67.12
2018-05-08T18:56:42.765Z,68.60
2018-05-08T18:59:09.447Z,66.61
2018-05-08T19:01:37.800Z,70.74
2018-05-08T19:04:05.996Z,70.09
2018-05-08T19:06:33.290Z,69.93
2018-05-08T19:08:59.944Z,71.18
2018-05-08T19:11:32.327Z,71.14
2018-05-08T19:13:59.174Z,70.42
2018-05-08T19:16:26.313Z,74.94
2018-05-08T19:18:58.904Z,72.24
2018-05-08T19:21:25.549Z,73.47
2018-05-08T19:24:00.235Z,73.87
2018-05-08T19:26:26.932Z,70.86
2018-05-08T19:28:59.477Z,71.03
2018-05-08T19:31:26.115Z,70.09
2018-05-08T19:33:52.713Z,74.01
2018-05-08T19:36:25.064Z,73.49
2018-05-08T19:38:51.533Z,72.63
2018-05-08T19:41:17.880Z,74.63
2018-05-08T19:43:45.580Z,76.58
2018-05-08T19:46:12.484Z,75.81
2018-05-08T19:48:38.901Z,75.25
2018-05-08T19:51:05.381Z,70.51
2018-05-08T19:53:31.779Z,75.62
2018-05-08T19:55:58.586Z,77.12
2018-05-08T19:58:25.072Z,75.84
2018-05-08T20:00:51.478Z,75.59
2018-05-08T20:03:17.982Z,75.13
2018-05-08T20:05:44.586Z,75.52
2018-05-08T20:08:10.924Z,75.37
2018-05-08T20:10:37.614Z,74.40
2018-05-08T20:13:04.171Z,75.46
2018-05-08T20:15:30.795Z,75.55
2018-05-08T20:17:57.578Z,76.21
2018-05-08T20:20:24.154Z,73.26
2018-05-08T20:22:50.490Z,73.85
2018-05-08T20:25:16.927Z,70.61
2018-05-08T20:27:43.443Z,73.58
2018-05-08T20:30:10.158Z,71.79
2018-05-08T20:32:37.370Z,70.88
2018-05-08T20:35:04.091Z,71.17
2018-05-08T20:37:31.239Z,71.96
2018-05-08T20:39:57.668Z,70.24
2018-05-08T20:42:24.187Z,68.19
2018-05-08T20:44:50.736Z,68.20
2018-05-08T20:47:17.118Z,68.41
2018-05-08T20:49:43.603Z,71.86
2018-05-08T20:52:10.383Z,69.81
2018-05-08T20:54:36.856Z,69.23
2018-05-08T20:57:03.327Z,69.82
2018-05-08T20:59:29.678Z,73.06
2018-05-08T21:01:56.185Z,68.46
2018-05-08T21:04:24.696Z,70.68
2018-05-08T21:06:51.036Z,70.69
2018-05-08T21:09:17.459Z,74.06
2018-05-08T21:11:43.975Z,71.01
2018-05-08T21:14:10.595Z,72.50
2018-05-08T21:16:37.051Z,74.36
2018-05-08T21:19:03.476Z,73.31
2018-05-08T21:21:29.827Z,74.04
2018-05-08T21:23:56.312Z,74.14
2018-05-08T21:26:22.744Z,76.46
2018-05-08T21:28:55.121Z,77.49
2018-05-08T21:31:21.547Z,74.40
2018-05-08T21:33:47.956Z,76.68
2018-05-08T21:36:14.354Z,76.70
2018-05-08T21:38:40.782Z,75.25
2018-05-08T21:41:07.126Z,76.09
2018-05-08T21:43:33.488Z,78.07
2018-05-08T21:45:59.899Z,75.16
2018-05-08T21:48:26.265Z,75.88
2018-05-08T21:50:52.644Z,77.35
2018-05-08T21:53:19.041Z,76.35
2018-05-08T21:55:45.548Z,77.20
2018-05-08T21:58:11.864Z,77.27
2018-05-08T22:00:38.223Z,77.30
2018-05-08T22:03:04.560Z,79.49
2018-05-08T22:05:31.110Z,77.37
2018-05-08T22:07:57.444Z,78.25
2018-05-08T22:10:23.848Z,79.40
2018-05-08T22:12:50.256Z,79.26
2018-05-08T22:15:17.686Z,78.11
2018-05-08T22:17:44.117Z,79.91
2018-05-08T22:20:10.501Z,78.95
2018-05-08T22:22:36.911Z,76.67
2018-05-08T22:25:05.397Z,78.49
2018-05-08T22:27:31.773Z,80.03
2018-05-08T22:29:58.084Z,81.41
2018-05-08T22:32:24.559Z,81.97
2018-05-08T22:34:52.031Z,79.41
2018-05-08T22:37:18.362Z,80.79
2018-05-08T22:39:44.746Z,79.20
2018-05-08T22:42:11.200Z,80.24
2018-05-08T22:44:37.603Z,81.64
2018-05-08T22:47:04.105Z,81.02
2018-05-08T22:49:30.490Z,80.98
2018-05-08T22:51:56.801Z,81.10
2018-05-08T22:54:23.192Z,82.33
2018-05-08T22:56:49.540Z,80.09
2018-05-08T22:59:15.836Z,81.05
2018-05-08T23:01:42.235Z,80.46
2018-05-08T23:04:08.704Z,78.87
2018-05-08T23:06:35.158Z,77.55
2018-05-08T23:09:01.572Z,76.99
2018-05-08T23:11:34.919Z,79.98
2018-05-08T23:14:01.382Z,81.46
2018-05-08T23:16:27.725Z,82.34
2018-05-08T23:18:54.097Z,79.97
2018-05-08T23:21:20.516Z,80.38
2018-05-08T23:23:46.812Z,81.55
2018-05-08T23:26:13.289Z,83.20
2018-05-08T23:28:39.725Z,80.97
2018-05-08T23:31:06.121Z,82.43
2018-05-08T23:33:32.472Z,82.78
2018-05-08T23:36:00.918Z,81.54
2018-05-08T23:38:27.303Z,84.07
2018-05-08T23:40:53.686Z,84.41
2018-05-08T23:43:20.149Z,84.15
2018-05-08T23:45:46.553Z,83.55
2018-05-08T23:48:12.909Z,85.94
2018-05-08T23:50:39.252Z,86.41
2018-05-08T23:53:05.621Z,87.71
2018-05-08T23:55:33.000Z,86.87
2018-05-08T23:57:59.409Z,87.19
